Connexion

Connexion à votre compte

Identifiant
Mot de passe
Maintenir la connexion active sur ce site
Création de compte
Profil utilisateur
(optionnel)
Annuler

Nous contacter

 Téléphone : +33 (0)4 79 54 41 81

Coordonnées détaillées et accès : cliquez ici

 
LFLB °C
    Ferienhaus Ostsee
[source: ADDS]
METAR
LFLB 211030Z AUTO VRB02KT CAVOK 10/02 Q1030 NOSIG =
TAF LFLB 210500Z 2106/2206 VRB02KT CAVOK PROB40 TEMPO 2106/2108 2000 BCFG PROB40 TEMPO 2203/2206 4000 BR
TAF
TAF LFLB 210500Z 2106/2206 VRB02KT CAVOK PROB40 TEMPO 2106/2108 2000 BCFG PROB40 TEMPO 2203/2206 4000 BR =
SR / SS: 06:29 / 17:11 UTC (Lever/Coucher du soleil le 2019-02-21)
JSN Boot template designed by JoomlaShine.com